Kezdőlap
METAR-TAF:

METAR-TAF

Repülőterek :

York Airport

York, Pennsylvania, Amerikai Egyesült Államok

földrajzi szélesség: 39-55-10N, földrajzi hosszúság: 076-52-37W, magasság: 146 m

Jelenlegi meteorológiai megfigyelések

A jelentés 16 perccel ezelõtt készült, 22:53 UTC
Déli szél 8 kt
Hőmérséklet -1°C
Páratartalom 86%
Légköri nyomás 1015 hPa
Látótávolság: 16.1 km
Borult 1300 lábon

METAR: KTHV 182253Z AUTO 19008KT 10SM OVC013 M01/M03 A2996 RMK AO2 UPB04E05B29E32FZRAE04B32E43 SLP153 P0000 I1000 T10061033

Idő: 18:09 (23:09 UTC)


TAF: hiányzik

Meteorológiai megfigyelések és előrejelzések több, mint 4000 repülőtéren (METAR és TAF jelentéseket).

A térképen piros és sárga pontok jelzik az elérhető meteorológiai állomásokat.

Mozgassa az egeret a pont fölött, hogy megjelenjen az állomás neve.

Azután kattintson az időjárási megfigyelések és előrejelzések megtekintéséhez.

A térkép megváltoztatása: kattintson a fekete keresztel jelölt zöld gombra ráközelítéshez, a vonallal jelölt zöld gombra távolításhoz, vagy a zöld nyilakra a szomszédos térképek eléréséhez.


METAR-TAF: